sensor_id;sensor_type;location;lat;lon;timestamp;P1;durP1;ratioP1;P2;durP2;ratioP2
17965;SDS011;9108;53.204;10.424;2023-03-01T00:01:02;11.18;;;5.80;;
17965;SDS011;9108;53.204;10.424;2023-03-01T00:03:30;15.05;;;6.03;;
17965;SDS011;9108;53.204;10.424;2023-03-01T00:05:57;11.65;;;5.60;;
17965;SDS011;9108;53.204;10.424;2023-03-01T00:08:25;12.57;;;5.63;;
17965;SDS011;9108;53.204;10.424;2023-03-01T00:11:00;11.85;;;5.32;;
17965;SDS011;9108;53.204;10.424;2023-03-01T00:13:28;11.68;;;5.07;;
17965;SDS011;9108;53.204;10.424;2023-03-01T00:15:55;12.27;;;5.57;;
17965;SDS011;9108;53.204;10.424;2023-03-01T00:18:22;10.13;;;5.30;;
17965;SDS011;9108;53.204;10.424;2023-03-01T00:20:50;13.55;;;5.18;;
17965;SDS011;9108;53.204;10.424;2023-03-01T00:23:17;12.20;;;5.60;;
17965;SDS011;9108;53.204;10.424;2023-03-01T00:25:44;11.05;;;4.88;;
17965;SDS011;9108;53.204;10.424;2023-03-01T00:28:13;10.25;;;4.47;;
17965;SDS011;9108;53.204;10.424;2023-03-01T00:30:40;9.70;;;4.68;;
17965;SDS011;9108;53.204;10.424;2023-03-01T00:33:08;9.88;;;4.60;;
17965;SDS011;9108;53.204;10.424;2023-03-01T00:35:35;11.57;;;4.78;;
17965;SDS011;9108;53.204;10.424;2023-03-01T00:38:03;10.82;;;4.70;;
17965;SDS011;9108;53.204;10.424;2023-03-01T00:40:31;10.30;;;4.60;;
17965;SDS011;9108;53.204;10.424;2023-03-01T00:42:58;9.60;;;4.70;;
17965;SDS011;9108;53.204;10.424;2023-03-01T00:45:27;12.25;;;5.55;;
17965;SDS011;9108;53.204;10.424;2023-03-01T00:47:56;12.63;;;5.50;;
17965;SDS011;9108;53.204;10.424;2023-03-01T00:50:23;13.13;;;5.50;;
17965;SDS011;9108;53.204;10.424;2023-03-01T00:52:51;14.10;;;5.43;;
17965;SDS011;9108;53.204;10.424;2023-03-01T00:55:19;12.65;;;5.20;;
17965;SDS011;9108;53.204;10.424;2023-03-01T00:57:46;10.80;;;5.45;;
17965;SDS011;9108;53.204;10.424;2023-03-01T01:00:13;11.45;;;5.22;;
17965;SDS011;9108;53.204;10.424;2023-03-01T01:02:42;10.90;;;5.13;;
17965;SDS011;9108;53.204;10.424;2023-03-01T01:05:09;8.38;;;4.13;;
17965;SDS011;9108;53.204;10.424;2023-03-01T01:07:36;7.53;;;3.92;;
17965;SDS011;9108;53.204;10.424;2023-03-01T01:10:04;9.85;;;4.68;;
17965;SDS011;9108;53.204;10.424;2023-03-01T01:12:31;11.88;;;6.07;;
17965;SDS011;9108;53.204;10.424;2023-03-01T01:14:58;8.93;;;4.75;;
17965;SDS011;9108;53.204;10.424;2023-03-01T01:17:25;9.48;;;4.55;;
17965;SDS011;9108;53.204;10.424;2023-03-01T01:19:54;9.68;;;4.95;;
17965;SDS011;9108;53.204;10.424;2023-03-01T01:22:21;14.13;;;6.57;;
17965;SDS011;9108;53.204;10.424;2023-03-01T01:24:48;13.80;;;6.05;;
17965;SDS011;9108;53.204;10.424;2023-03-01T01:27:15;11.80;;;5.25;;
17965;SDS011;9108;53.204;10.424;2023-03-01T01:29:42;12.18;;;4.80;;
17965;SDS011;9108;53.204;10.424;2023-03-01T01:32:10;8.95;;;4.32;;
17965;SDS011;9108;53.204;10.424;2023-03-01T01:34:37;8.23;;;3.45;;
17965;SDS011;9108;53.204;10.424;2023-03-01T01:37:05;8.13;;;3.25;;
17965;SDS011;9108;53.204;10.424;2023-03-01T01:39:32;7.17;;;3.07;;
17965;SDS011;9108;53.204;10.424;2023-03-01T01:42:00;7.07;;;3.20;;
17965;SDS011;9108;53.204;10.424;2023-03-01T01:44:27;7.73;;;3.03;;
17965;SDS011;9108;53.204;10.424;2023-03-01T01:46:55;6.67;;;2.80;;
17965;SDS011;9108;53.204;10.424;2023-03-01T01:49:25;7.72;;;2.88;;
17965;SDS011;9108;53.204;10.424;2023-03-01T01:51:55;8.00;;;3.05;;
17965;SDS011;9108;53.204;10.424;2023-03-01T01:54:25;7.05;;;2.67;;
17965;SDS011;9108;53.204;10.424;2023-03-01T01:56:55;6.70;;;2.85;;
17965;SDS011;9108;53.204;10.424;2023-03-01T01:59:23;8.07;;;3.20;;
17965;SDS011;9108;53.204;10.424;2023-03-01T02:01:51;7.03;;;3.22;;
17965;SDS011;9108;53.204;10.424;2023-03-01T02:04:18;7.38;;;3.10;;
17965;SDS011;9108;53.204;10.424;2023-03-01T02:06:47;8.18;;;3.20;;
17965;SDS011;9108;53.204;10.424;2023-03-01T02:09:16;8.07;;;3.08;;
17965;SDS011;9108;53.204;10.424;2023-03-01T02:11:47;8.50;;;3.33;;
17965;SDS011;9108;53.204;10.424;2023-03-01T02:14:14;7.78;;;3.22;;
17965;SDS011;9108;53.204;10.424;2023-03-01T02:16:42;8.15;;;3.53;;
17965;SDS011;9108;53.204;10.424;2023-03-01T02:19:10;8.45;;;3.40;;
17965;SDS011;9108;53.204;10.424;2023-03-01T02:21:42;6.80;;;3.20;;
17965;SDS011;9108;53.204;10.424;2023-03-01T02:24:14;6.20;;;3.22;;
17965;SDS011;9108;53.204;10.424;2023-03-01T02:26:48;5.93;;;3.00;;
17965;SDS011;9108;53.204;10.424;2023-03-01T02:29:18;6.38;;;2.95;;
17965;SDS011;9108;53.204;10.424;2023-03-01T02:31:45;6.25;;;2.80;;
17965;SDS011;9108;53.204;10.424;2023-03-01T02:34:12;6.50;;;3.08;;
17965;SDS011;9108;53.204;10.424;2023-03-01T02:36:41;6.00;;;2.60;;
17965;SDS011;9108;53.204;10.424;2023-03-01T02:39:11;7.35;;;2.90;;
17965;SDS011;9108;53.204;10.424;2023-03-01T02:41:39;6.95;;;2.78;;
17965;SDS011;9108;53.204;10.424;2023-03-01T02:44:07;5.50;;;2.73;;
17965;SDS011;9108;53.204;10.424;2023-03-01T02:46:41;8.38;;;3.30;;
17965;SDS011;9108;53.204;10.424;2023-03-01T02:49:19;5.38;;;2.80;;
17965;SDS011;9108;53.204;10.424;2023-03-01T02:51:48;5.47;;;2.80;;
17965;SDS011;9108;53.204;10.424;2023-03-01T02:54:21;6.05;;;2.88;;
17965;SDS011;9108;53.204;10.424;2023-03-01T02:56:50;6.20;;;3.10;;
17965;SDS011;9108;53.204;10.424;2023-03-01T02:59:19;6.05;;;3.00;;
17965;SDS011;9108;53.204;10.424;2023-03-01T03:01:48;8.13;;;3.13;;
17965;SDS011;9108;53.204;10.424;2023-03-01T03:04:16;6.18;;;3.00;;
17965;SDS011;9108;53.204;10.424;2023-03-01T03:06:46;6.80;;;2.90;;
17965;SDS011;9108;53.204;10.424;2023-03-01T03:09:14;7.32;;;3.10;;
17965;SDS011;9108;53.204;10.424;2023-03-01T03:11:41;5.43;;;3.00;;
17965;SDS011;9108;53.204;10.424;2023-03-01T03:14:09;6.70;;;3.00;;
17965;SDS011;9108;53.204;10.424;2023-03-01T03:16:39;7.32;;;2.90;;
17965;SDS011;9108;53.204;10.424;2023-03-01T03:19:07;5.80;;;2.97;;
17965;SDS011;9108;53.204;10.424;2023-03-01T03:21:34;6.10;;;2.97;;
17965;SDS011;9108;53.204;10.424;2023-03-01T03:24:02;5.57;;;2.70;;
17965;SDS011;9108;53.204;10.424;2023-03-01T03:26:30;6.88;;;3.00;;
17965;SDS011;9108;53.204;10.424;2023-03-01T03:28:57;6.22;;;2.70;;
17965;SDS011;9108;53.204;10.424;2023-03-01T03:31:24;6.68;;;3.00;;
17965;SDS011;9108;53.204;10.424;2023-03-01T03:33:51;5.88;;;2.50;;
17965;SDS011;9108;53.204;10.424;2023-03-01T03:36:21;7.20;;;2.77;;
17965;SDS011;9108;53.204;10.424;2023-03-01T03:38:48;6.05;;;2.70;;
17965;SDS011;9108;53.204;10.424;2023-03-01T03:41:16;5.20;;;2.60;;
17965;SDS011;9108;53.204;10.424;2023-03-01T03:43:43;5.20;;;2.90;;
17965;SDS011;9108;53.204;10.424;2023-03-01T03:46:10;5.68;;;2.78;;
17965;SDS011;9108;53.204;10.424;2023-03-01T03:48:38;5.18;;;2.60;;
17965;SDS011;9108;53.204;10.424;2023-03-01T03:51:06;6.22;;;2.75;;
17965;SDS011;9108;53.204;10.424;2023-03-01T03:53:34;5.73;;;2.83;;
17965;SDS011;9108;53.204;10.424;2023-03-01T03:56:02;6.18;;;2.95;;
17965;SDS011;9108;53.204;10.424;2023-03-01T03:58:29;8.82;;;3.30;;
17965;SDS011;9108;53.204;10.424;2023-03-01T04:00:57;6.72;;;3.53;;
17965;SDS011;9108;53.204;10.424;2023-03-01T04:03:26;6.38;;;3.30;;
17965;SDS011;9108;53.204;10.424;2023-03-01T04:05:54;6.97;;;3.63;;
17965;SDS011;9108;53.204;10.424;2023-03-01T04:08:23;7.25;;;3.00;;
17965;SDS011;9108;53.204;10.424;2023-03-01T04:10:52;6.68;;;2.88;;
17965;SDS011;9108;53.204;10.424;2023-03-01T04:13:23;7.03;;;3.00;;
17965;SDS011;9108;53.204;10.424;2023-03-01T04:15:50;6.82;;;3.05;;
17965;SDS011;9108;53.204;10.424;2023-03-01T04:18:18;5.82;;;2.92;;
17965;SDS011;9108;53.204;10.424;2023-03-01T04:20:45;5.72;;;2.97;;
17965;SDS011;9108;53.204;10.424;2023-03-01T04:23:13;8.18;;;3.50;;
17965;SDS011;9108;53.204;10.424;2023-03-01T04:25:45;8.43;;;3.90;;
17965;SDS011;9108;53.204;10.424;2023-03-01T04:28:15;10.65;;;4.40;;
17965;SDS011;9108;53.204;10.424;2023-03-01T04:30:42;7.05;;;3.65;;
17965;SDS011;9108;53.204;10.424;2023-03-01T04:33:10;8.95;;;3.80;;
17965;SDS011;9108;53.204;10.424;2023-03-01T04:35:37;8.52;;;3.40;;
17965;SDS011;9108;53.204;10.424;2023-03-01T04:38:05;9.48;;;4.18;;
17965;SDS011;9108;53.204;10.424;2023-03-01T04:40:32;12.65;;;6.00;;
17965;SDS011;9108;53.204;10.424;2023-03-01T04:43:00;9.52;;;4.78;;
17965;SDS011;9108;53.204;10.424;2023-03-01T04:45:28;7.95;;;3.88;;
17965;SDS011;9108;53.204;10.424;2023-03-01T04:47:55;7.90;;;3.88;;
17965;SDS011;9108;53.204;10.424;2023-03-01T04:50:23;7.78;;;3.60;;
17965;SDS011;9108;53.204;10.424;2023-03-01T04:52:51;6.50;;;3.75;;
17965;SDS011;9108;53.204;10.424;2023-03-01T04:55:18;8.07;;;3.45;;
17965;SDS011;9108;53.204;10.424;2023-03-01T04:57:45;7.05;;;3.28;;
17965;SDS011;9108;53.204;10.424;2023-03-01T05:00:13;6.40;;;3.10;;
17965;SDS011;9108;53.204;10.424;2023-03-01T05:02:49;6.38;;;3.50;;
17965;SDS011;9108;53.204;10.424;2023-03-01T05:05:18;6.57;;;3.40;;
17965;SDS011;9108;53.204;10.424;2023-03-01T05:07:46;6.37;;;3.63;;
17965;SDS011;9108;53.204;10.424;2023-03-01T05:10:13;6.90;;;3.30;;
17965;SDS011;9108;53.204;10.424;2023-03-01T05:12:40;6.25;;;3.00;;
17965;SDS011;9108;53.204;10.424;2023-03-01T05:15:07;6.10;;;2.95;;
17965;SDS011;9108;53.204;10.424;2023-03-01T05:17:35;7.03;;;3.07;;
17965;SDS011;9108;53.204;10.424;2023-03-01T05:20:04;6.45;;;3.08;;
17965;SDS011;9108;53.204;10.424;2023-03-01T05:22:33;6.88;;;3.05;;
17965;SDS011;9108;53.204;10.424;2023-03-01T05:25:01;6.25;;;3.17;;
17965;SDS011;9108;53.204;10.424;2023-03-01T05:27:28;5.23;;;2.77;;
17965;SDS011;9108;53.204;10.424;2023-03-01T05:29:55;6.13;;;2.90;;
17965;SDS011;9108;53.204;10.424;2023-03-01T05:32:22;7.28;;;2.92;;
17965;SDS011;9108;53.204;10.424;2023-03-01T05:34:49;7.55;;;3.20;;
17965;SDS011;9108;53.204;10.424;2023-03-01T05:37:18;6.30;;;3.03;;
17965;SDS011;9108;53.204;10.424;2023-03-01T05:39:45;6.72;;;2.70;;
17965;SDS011;9108;53.204;10.424;2023-03-01T05:42:15;6.70;;;2.95;;
17965;SDS011;9108;53.204;10.424;2023-03-01T05:44:43;6.78;;;3.20;;
17965;SDS011;9108;53.204;10.424;2023-03-01T05:47:10;7.07;;;3.17;;
17965;SDS011;9108;53.204;10.424;2023-03-01T05:49:37;6.57;;;3.35;;
17965;SDS011;9108;53.204;10.424;2023-03-01T05:52:04;6.32;;;3.08;;
17965;SDS011;9108;53.204;10.424;2023-03-01T05:54:33;6.20;;;3.40;;
17965;SDS011;9108;53.204;10.424;2023-03-01T05:57:00;7.03;;;3.20;;
17965;SDS011;9108;53.204;10.424;2023-03-01T05:59:27;6.90;;;3.47;;
17965;SDS011;9108;53.204;10.424;2023-03-01T06:01:54;7.15;;;3.47;;
17965;SDS011;9108;53.204;10.424;2023-03-01T06:04:22;8.68;;;3.30;;
17965;SDS011;9108;53.204;10.424;2023-03-01T06:06:49;6.72;;;3.40;;
17965;SDS011;9108;53.204;10.424;2023-03-01T06:09:16;16.13;;;5.78;;
17965;SDS011;9108;53.204;10.424;2023-03-01T06:11:44;26.55;;;8.50;;
17965;SDS011;9108;53.204;10.424;2023-03-01T06:14:12;92.38;;;20.15;;
17965;SDS011;9108;53.204;10.424;2023-03-01T06:16:39;67.55;;;16.30;;
17965;SDS011;9108;53.204;10.424;2023-03-01T06:19:06;21.98;;;6.32;;
17965;SDS011;9108;53.204;10.424;2023-03-01T06:21:33;10.05;;;3.70;;
17965;SDS011;9108;53.204;10.424;2023-03-01T06:24:01;10.10;;;4.32;;
17965;SDS011;9108;53.204;10.424;2023-03-01T06:26:28;7.53;;;3.90;;
17965;SDS011;9108;53.204;10.424;2023-03-01T06:28:56;8.13;;;4.70;;
17965;SDS011;9108;53.204;10.424;2023-03-01T06:31:23;8.63;;;4.85;;
17965;SDS011;9108;53.204;10.424;2023-03-01T06:33:50;7.03;;;4.00;;
17965;SDS011;9108;53.204;10.424;2023-03-01T06:36:18;7.28;;;3.95;;
17965;SDS011;9108;53.204;10.424;2023-03-01T06:41:50;9.82;;;4.80;;
17965;SDS011;9108;53.204;10.424;2023-03-01T06:44:19;7.97;;;4.20;;
17965;SDS011;9108;53.204;10.424;2023-03-01T06:46:49;8.13;;;4.22;;
17965;SDS011;9108;53.204;10.424;2023-03-01T06:49:16;10.75;;;4.68;;
17965;SDS011;9108;53.204;10.424;2023-03-01T06:51:44;8.70;;;4.72;;
17965;SDS011;9108;53.204;10.424;2023-03-01T06:54:12;9.27;;;4.40;;
17965;SDS011;9108;53.204;10.424;2023-03-01T06:56:40;9.83;;;5.30;;
17965;SDS011;9108;53.204;10.424;2023-03-01T06:59:07;14.52;;;7.53;;
17965;SDS011;9108;53.204;10.424;2023-03-01T07:01:35;18.58;;;8.23;;
17965;SDS011;9108;53.204;10.424;2023-03-01T07:04:03;13.40;;;5.68;;
17965;SDS011;9108;53.204;10.424;2023-03-01T07:06:30;14.70;;;5.13;;
17965;SDS011;9108;53.204;10.424;2023-03-01T07:08:58;13.80;;;5.30;;
17965;SDS011;9108;53.204;10.424;2023-03-01T07:11:25;9.75;;;4.35;;
17965;SDS011;9108;53.204;10.424;2023-03-01T07:13:52;8.13;;;3.95;;
17965;SDS011;9108;53.204;10.424;2023-03-01T07:16:20;8.32;;;3.60;;
17965;SDS011;9108;53.204;10.424;2023-03-01T07:18:48;8.27;;;4.20;;
17965;SDS011;9108;53.204;10.424;2023-03-01T07:21:16;8.65;;;4.43;;
17965;SDS011;9108;53.204;10.424;2023-03-01T07:23:43;9.20;;;4.00;;
17965;SDS011;9108;53.204;10.424;2023-03-01T07:26:10;8.88;;;4.25;;
17965;SDS011;9108;53.204;10.424;2023-03-01T07:28:37;11.43;;;4.47;;
17965;SDS011;9108;53.204;10.424;2023-03-01T07:31:04;9.98;;;5.40;;
17965;SDS011;9108;53.204;10.424;2023-03-01T07:33:32;9.93;;;4.90;;
17965;SDS011;9108;53.204;10.424;2023-03-01T07:36:01;21.45;;;9.27;;
17965;SDS011;9108;53.204;10.424;2023-03-01T07:38:28;11.73;;;5.40;;
17965;SDS011;9108;53.204;10.424;2023-03-01T07:40:57;10.67;;;5.53;;
17965;SDS011;9108;53.204;10.424;2023-03-01T07:43:25;10.83;;;5.00;;
17965;SDS011;9108;53.204;10.424;2023-03-01T07:45:52;10.53;;;5.10;;
17965;SDS011;9108;53.204;10.424;2023-03-01T07:48:33;10.20;;;5.20;;
17965;SDS011;9108;53.204;10.424;2023-03-01T08:05:52;11.47;;;5.77;;
17965;SDS011;9108;53.204;10.424;2023-03-01T08:08:19;11.88;;;5.53;;
17965;SDS011;9108;53.204;10.424;2023-03-01T08:10:46;9.90;;;5.40;;
17965;SDS011;9108;53.204;10.424;2023-03-01T08:13:14;11.57;;;5.25;;
17965;SDS011;9108;53.204;10.424;2023-03-01T08:15:41;9.85;;;4.50;;
17965;SDS011;9108;53.204;10.424;2023-03-01T08:18:08;9.68;;;4.15;;
17965;SDS011;9108;53.204;10.424;2023-03-01T08:20:35;8.00;;;3.60;;
17965;SDS011;9108;53.204;10.424;2023-03-01T08:23:03;5.63;;;3.27;;
17965;SDS011;9108;53.204;10.424;2023-03-01T08:25:30;7.47;;;3.25;;
17965;SDS011;9108;53.204;10.424;2023-03-01T08:27:58;5.30;;;2.97;;
17965;SDS011;9108;53.204;10.424;2023-03-01T08:30:25;5.90;;;2.90;;
17965;SDS011;9108;53.204;10.424;2023-03-01T08:32:52;4.93;;;2.65;;
17965;SDS011;9108;53.204;10.424;2023-03-01T08:35:19;5.85;;;3.00;;
17965;SDS011;9108;53.204;10.424;2023-03-01T08:37:46;5.55;;;2.80;;
17965;SDS011;9108;53.204;10.424;2023-03-01T08:40:15;6.43;;;3.40;;
17965;SDS011;9108;53.204;10.424;2023-03-01T08:48:50;7.45;;;3.45;;
17965;SDS011;9108;53.204;10.424;2023-03-01T08:51:17;6.55;;;3.47;;
17965;SDS011;9108;53.204;10.424;2023-03-01T08:53:47;6.47;;;3.70;;
17965;SDS011;9108;53.204;10.424;2023-03-01T08:56:16;7.45;;;3.30;;
17965;SDS011;9108;53.204;10.424;2023-03-01T08:58:44;6.25;;;3.40;;
17965;SDS011;9108;53.204;10.424;2023-03-01T09:01:13;6.53;;;3.28;;
17965;SDS011;9108;53.204;10.424;2023-03-01T09:03:40;6.13;;;3.40;;
17965;SDS011;9108;53.204;10.424;2023-03-01T09:06:08;7.85;;;3.63;;
17965;SDS011;9108;53.204;10.424;2023-03-01T09:08:35;6.43;;;3.20;;
17965;SDS011;9108;53.204;10.424;2023-03-01T09:11:03;6.20;;;2.90;;
17965;SDS011;9108;53.204;10.424;2023-03-01T09:13:31;9.43;;;2.85;;
17965;SDS011;9108;53.204;10.424;2023-03-01T09:16:00;9.38;;;3.30;;
17965;SDS011;9108;53.204;10.424;2023-03-01T09:18:27;6.50;;;2.80;;
17965;SDS011;9108;53.204;10.424;2023-03-01T09:21:01;7.72;;;3.13;;
17965;SDS011;9108;53.204;10.424;2023-03-01T09:23:32;6.40;;;3.15;;
17965;SDS011;9108;53.204;10.424;2023-03-01T09:25:59;7.13;;;2.90;;
17965;SDS011;9108;53.204;10.424;2023-03-01T09:28:26;10.40;;;3.63;;
17965;SDS011;9108;53.204;10.424;2023-03-01T09:30:59;9.73;;;3.60;;
17965;SDS011;9108;53.204;10.424;2023-03-01T09:33:26;10.43;;;3.60;;
17965;SDS011;9108;53.204;10.424;2023-03-01T09:35:58;8.15;;;3.80;;
17965;SDS011;9108;53.204;10.424;2023-03-01T09:38:26;7.90;;;3.55;;
17965;SDS011;9108;53.204;10.424;2023-03-01T09:40:53;8.30;;;3.95;;
17965;SDS011;9108;53.204;10.424;2023-03-01T09:43:21;9.07;;;4.28;;
17965;SDS011;9108;53.204;10.424;2023-03-01T09:45:53;9.65;;;4.30;;
17965;SDS011;9108;53.204;10.424;2023-03-01T09:48:23;8.75;;;4.28;;
17965;SDS011;9108;53.204;10.424;2023-03-01T09:50:51;10.57;;;4.50;;
17965;SDS011;9108;53.204;10.424;2023-03-01T09:53:20;12.07;;;5.38;;
17965;SDS011;9108;53.204;10.424;2023-03-01T09:55:49;12.07;;;6.05;;
17965;SDS011;9108;53.204;10.424;2023-03-01T09:58:31;12.63;;;5.90;;
17965;SDS011;9108;53.204;10.424;2023-03-01T10:01:02;12.10;;;5.70;;
17965;SDS011;9108;53.204;10.424;2023-03-01T10:03:34;13.70;;;6.47;;
17965;SDS011;9108;53.204;10.424;2023-03-01T10:06:04;12.00;;;5.93;;
17965;SDS011;9108;53.204;10.424;2023-03-01T10:08:34;11.73;;;6.40;;
17965;SDS011;9108;53.204;10.424;2023-03-01T10:11:24;14.02;;;6.85;;
17965;SDS011;9108;53.204;10.424;2023-03-01T10:13:55;15.13;;;7.10;;
17965;SDS011;9108;53.204;10.424;2023-03-01T10:16:28;14.93;;;7.60;;
17965;SDS011;9108;53.204;10.424;2023-03-01T10:19:08;15.35;;;7.20;;
17965;SDS011;9108;53.204;10.424;2023-03-01T10:21:39;14.38;;;6.85;;
17965;SDS011;9108;53.204;10.424;2023-03-01T10:24:10;13.02;;;6.60;;
17965;SDS011;9108;53.204;10.424;2023-03-01T10:26:41;13.48;;;6.55;;
17965;SDS011;9108;53.204;10.424;2023-03-01T10:29:14;13.45;;;6.60;;
17965;SDS011;9108;53.204;10.424;2023-03-01T10:31:43;13.35;;;6.97;;
17965;SDS011;9108;53.204;10.424;2023-03-01T10:34:13;12.98;;;6.38;;
17965;SDS011;9108;53.204;10.424;2023-03-01T10:36:41;15.05;;;6.72;;
17965;SDS011;9108;53.204;10.424;2023-03-01T10:39:13;11.18;;;6.05;;
17965;SDS011;9108;53.204;10.424;2023-03-01T10:41:57;13.00;;;6.43;;
17965;SDS011;9108;53.204;10.424;2023-03-01T10:44:35;16.23;;;6.22;;
17965;SDS011;9108;53.204;10.424;2023-03-01T10:47:02;12.20;;;6.65;;
17965;SDS011;9108;53.204;10.424;2023-03-01T10:49:31;13.88;;;6.30;;
17965;SDS011;9108;53.204;10.424;2023-03-01T10:51:58;14.20;;;6.65;;
17965;SDS011;9108;53.204;10.424;2023-03-01T10:54:37;11.18;;;6.13;;
17965;SDS011;9108;53.204;10.424;2023-03-01T10:57:10;12.93;;;6.70;;
17965;SDS011;9108;53.204;10.424;2023-03-01T11:00:00;14.73;;;6.80;;
17965;SDS011;9108;53.204;10.424;2023-03-01T11:02:29;15.15;;;7.40;;
17965;SDS011;9108;53.204;10.424;2023-03-01T11:05:00;14.45;;;7.72;;
17965;SDS011;9108;53.204;10.424;2023-03-01T11:07:27;15.38;;;7.68;;
17965;SDS011;9108;53.204;10.424;2023-03-01T11:09:54;14.77;;;7.93;;
17965;SDS011;9108;53.204;10.424;2023-03-01T11:12:22;15.48;;;7.60;;
17965;SDS011;9108;53.204;10.424;2023-03-01T11:14:50;16.55;;;7.95;;
17965;SDS011;9108;53.204;10.424;2023-03-01T11:17:18;14.50;;;7.95;;
17965;SDS011;9108;53.204;10.424;2023-03-01T11:20:00;15.82;;;7.70;;
17965;SDS011;9108;53.204;10.424;2023-03-01T11:22:28;12.93;;;7.75;;
17965;SDS011;9108;53.204;10.424;2023-03-01T11:24:57;15.85;;;8.02;;
17965;SDS011;9108;53.204;10.424;2023-03-01T11:27:24;15.77;;;7.85;;
17965;SDS011;9108;53.204;10.424;2023-03-01T11:29:54;15.18;;;7.75;;
17965;SDS011;9108;53.204;10.424;2023-03-01T11:32:24;15.40;;;8.15;;
17965;SDS011;9108;53.204;10.424;2023-03-01T11:34:55;14.88;;;8.30;;
17965;SDS011;9108;53.204;10.424;2023-03-01T11:37:28;15.27;;;8.40;;
17965;SDS011;9108;53.204;10.424;2023-03-01T11:40:03;17.90;;;8.70;;
17965;SDS011;9108;53.204;10.424;2023-03-01T11:42:38;15.18;;;8.43;;
17965;SDS011;9108;53.204;10.424;2023-03-01T11:45:11;15.82;;;8.93;;
17965;SDS011;9108;53.204;10.424;2023-03-01T11:47:45;15.20;;;8.88;;
17965;SDS011;9108;53.204;10.424;2023-03-01T11:50:18;13.27;;;7.82;;
17965;SDS011;9108;53.204;10.424;2023-03-01T11:52:54;15.25;;;7.88;;
17965;SDS011;9108;53.204;10.424;2023-03-01T11:55:34;13.83;;;7.63;;
17965;SDS011;9108;53.204;10.424;2023-03-01T11:58:08;14.40;;;7.93;;
17965;SDS011;9108;53.204;10.424;2023-03-01T12:00:43;14.18;;;7.82;;
17965;SDS011;9108;53.204;10.424;2023-03-01T12:03:19;16.40;;;7.68;;
17965;SDS011;9108;53.204;10.424;2023-03-01T12:08:35;12.13;;;7.23;;
17965;SDS011;9108;53.204;10.424;2023-03-01T12:11:11;15.25;;;8.10;;
17965;SDS011;9108;53.204;10.424;2023-03-01T12:13:54;12.98;;;7.90;;
17965;SDS011;9108;53.204;10.424;2023-03-01T12:16:30;14.90;;;7.78;;
17965;SDS011;9108;53.204;10.424;2023-03-01T12:19:15;14.50;;;8.33;;
17965;SDS011;9108;53.204;10.424;2023-03-01T12:21:49;15.93;;;8.65;;
17965;SDS011;9108;53.204;10.424;2023-03-01T12:24:24;13.35;;;8.10;;
17965;SDS011;9108;53.204;10.424;2023-03-01T12:26:58;13.95;;;7.80;;
17965;SDS011;9108;53.204;10.424;2023-03-01T12:29:29;14.80;;;7.60;;
17965;SDS011;9108;53.204;10.424;2023-03-01T12:32:12;13.70;;;7.60;;
17965;SDS011;9108;53.204;10.424;2023-03-01T12:34:53;14.85;;;8.50;;
17965;SDS011;9108;53.204;10.424;2023-03-01T12:37:33;16.08;;;8.82;;
17965;SDS011;9108;53.204;10.424;2023-03-01T12:40:13;15.97;;;8.50;;
17965;SDS011;9108;53.204;10.424;2023-03-01T12:42:45;15.32;;;7.90;;
17965;SDS011;9108;53.204;10.424;2023-03-01T12:45:24;14.00;;;8.25;;
17965;SDS011;9108;53.204;10.424;2023-03-01T12:48:18;12.45;;;7.60;;
17965;SDS011;9108;53.204;10.424;2023-03-01T12:50:49;13.82;;;7.95;;
17965;SDS011;9108;53.204;10.424;2023-03-01T12:53:44;13.90;;;8.33;;
17965;SDS011;9108;53.204;10.424;2023-03-01T12:59:26;15.75;;;8.30;;
17965;SDS011;9108;53.204;10.424;2023-03-01T13:02:02;16.40;;;8.75;;
17965;SDS011;9108;53.204;10.424;2023-03-01T13:04:34;14.55;;;8.45;;
17965;SDS011;9108;53.204;10.424;2023-03-01T13:07:24;16.13;;;8.60;;
17965;SDS011;9108;53.204;10.424;2023-03-01T13:09:55;15.70;;;8.68;;
17965;SDS011;9108;53.204;10.424;2023-03-01T13:12:45;15.82;;;7.80;;
17965;SDS011;9108;53.204;10.424;2023-03-01T13:18:00;13.50;;;7.97;;
17965;SDS011;9108;53.204;10.424;2023-03-01T13:20:30;15.95;;;8.15;;
17965;SDS011;9108;53.204;10.424;2023-03-01T13:23:11;16.43;;;7.97;;
17965;SDS011;9108;53.204;10.424;2023-03-01T13:28:38;15.05;;;8.57;;
17965;SDS011;9108;53.204;10.424;2023-03-01T13:48:44;14.98;;;8.55;;
17965;SDS011;9108;53.204;10.424;2023-03-01T13:51:32;15.13;;;8.73;;
17965;SDS011;9108;53.204;10.424;2023-03-01T13:54:01;17.20;;;8.95;;
17965;SDS011;9108;53.204;10.424;2023-03-01T13:56:33;16.70;;;9.13;;
17965;SDS011;9108;53.204;10.424;2023-03-01T13:59:04;16.95;;;9.02;;
17965;SDS011;9108;53.204;10.424;2023-03-01T14:01:32;16.70;;;8.77;;
17965;SDS011;9108;53.204;10.424;2023-03-01T14:04:01;14.70;;;8.45;;
17965;SDS011;9108;53.204;10.424;2023-03-01T14:06:30;15.10;;;9.02;;
17965;SDS011;9108;53.204;10.424;2023-03-01T14:09:04;16.35;;;8.60;;
17965;SDS011;9108;53.204;10.424;2023-03-01T14:17:13;17.77;;;9.57;;
17965;SDS011;9108;53.204;10.424;2023-03-01T14:19:44;17.83;;;9.13;;
17965;SDS011;9108;53.204;10.424;2023-03-01T14:22:14;17.33;;;9.70;;
17965;SDS011;9108;53.204;10.424;2023-03-01T14:24:47;16.15;;;9.57;;
17965;SDS011;9108;53.204;10.424;2023-03-01T14:27:15;19.00;;;9.88;;
17965;SDS011;9108;53.204;10.424;2023-03-01T14:29:56;18.15;;;9.95;;
17965;SDS011;9108;53.204;10.424;2023-03-01T14:32:33;17.98;;;9.45;;
17965;SDS011;9108;53.204;10.424;2023-03-01T14:35:19;17.50;;;9.23;;
17965;SDS011;9108;53.204;10.424;2023-03-01T14:37:48;17.83;;;8.93;;
17965;SDS011;9108;53.204;10.424;2023-03-01T14:40:23;16.73;;;9.50;;
17965;SDS011;9108;53.204;10.424;2023-03-01T14:42:50;18.08;;;9.13;;
17965;SDS011;9108;53.204;10.424;2023-03-01T14:45:18;15.38;;;8.80;;
17965;SDS011;9108;53.204;10.424;2023-03-01T14:47:46;17.55;;;9.40;;
17965;SDS011;9108;53.204;10.424;2023-03-01T14:50:21;18.27;;;9.85;;
17965;SDS011;9108;53.204;10.424;2023-03-01T14:52:49;16.70;;;9.27;;
17965;SDS011;9108;53.204;10.424;2023-03-01T14:55:18;20.92;;;9.80;;
17965;SDS011;9108;53.204;10.424;2023-03-01T14:57:47;17.57;;;9.33;;
17965;SDS011;9108;53.204;10.424;2023-03-01T15:00:16;17.92;;;8.95;;
17965;SDS011;9108;53.204;10.424;2023-03-01T15:02:44;16.38;;;8.90;;
17965;SDS011;9108;53.204;10.424;2023-03-01T15:05:13;17.00;;;8.02;;
17965;SDS011;9108;53.204;10.424;2023-03-01T15:07:42;15.20;;;8.45;;
17965;SDS011;9108;53.204;10.424;2023-03-01T15:10:16;15.07;;;8.10;;
17965;SDS011;9108;53.204;10.424;2023-03-01T15:12:44;17.50;;;8.50;;
17965;SDS011;9108;53.204;10.424;2023-03-01T15:15:22;16.23;;;8.65;;
17965;SDS011;9108;53.204;10.424;2023-03-01T15:17:53;16.83;;;8.25;;
17965;SDS011;9108;53.204;10.424;2023-03-01T15:20:22;16.52;;;8.88;;
17965;SDS011;9108;53.204;10.424;2023-03-01T15:22:52;15.50;;;9.30;;
17965;SDS011;9108;53.204;10.424;2023-03-01T15:25:20;18.58;;;9.07;;
17965;SDS011;9108;53.204;10.424;2023-03-01T15:27:48;17.50;;;9.07;;
17965;SDS011;9108;53.204;10.424;2023-03-01T15:30:17;15.68;;;8.85;;
17965;SDS011;9108;53.204;10.424;2023-03-01T15:32:44;16.38;;;9.02;;
17965;SDS011;9108;53.204;10.424;2023-03-01T15:37:59;15.60;;;8.60;;
17965;SDS011;9108;53.204;10.424;2023-03-01T15:40:27;17.80;;;9.43;;
17965;SDS011;9108;53.204;10.424;2023-03-01T15:42:57;16.73;;;8.70;;
17965;SDS011;9108;53.204;10.424;2023-03-01T15:45:25;16.67;;;8.60;;
17965;SDS011;9108;53.204;10.424;2023-03-01T15:47:53;15.35;;;8.65;;
17965;SDS011;9108;53.204;10.424;2023-03-01T15:50:23;17.38;;;8.95;;
17965;SDS011;9108;53.204;10.424;2023-03-01T15:52:51;15.50;;;8.93;;
17965;SDS011;9108;53.204;10.424;2023-03-01T15:55:21;16.92;;;9.05;;
17965;SDS011;9108;53.204;10.424;2023-03-01T15:57:48;17.08;;;9.43;;